Time;durP1;ratioP1;P1;durP2;ratioP2;P2;SDS_P1;SDS_P2;PMS_P1;PMS_P2;Temp;Humidity;BMP_temperature;BMP_pressure;BME280_temperature;BME280_humidity;BME280_pressure;Samples;Min_cycle;Max_cycle;Signal;HPM_P1;HPM_P2
2022/07/27 08:55:19;;;;;;;21.30;19.67;;;37.10;99.50;;;;;;5116092;23;20060;-70
2022/07/27 08:57:46;;;;;;;21.13;19.27;;;36.70;99.80;;;;;;4907083;29;20419;-70
2022/07/27 09:00:12;;;;;;;21.02;19.42;;;36.90;99.90;;;;;;4883523;29;20032;-70
2022/07/27 09:02:41;;;;;;;19.67;17.90;;;36.90;99.70;;;;;;4900289;29;20041;-70
2022/07/27 09:05:08;;;;;;;19.67;18.00;;;37.00;99.40;;;;;;4900233;29;20089;-70
2022/07/27 09:07:35;;;;;;;21.23;19.42;;;36.50;99.40;;;;;;4900257;29;20032;-71
2022/07/27 09:10:01;;;;;;;19.13;17.70;;;36.40;99.60;;;;;;4900644;29;20033;-71
2022/07/27 09:12:29;;;;;;;20.45;18.80;;;35.80;99.60;;;;;;4899862;29;20096;-70
2022/07/27 09:15:09;;;;;;;20.05;18.55;;;35.20;99.90;;;;;;4899893;29;20028;-71
2022/07/27 09:17:38;;;;;;;20.95;19.20;;;35.20;99.90;;;;;;4899872;29;20032;-70
2022/07/27 09:20:15;;;;;;;20.67;18.75;;;34.80;99.90;;;;;;4899879;29;20401;-70
2022/07/27 09:22:44;;;;;;;20.70;18.90;;;35.30;99.90;;;;;;4899943;29;20036;-70
2022/07/27 09:25:15;;;;;;;20.77;18.85;;;35.90;99.90;;;;;;4899747;29;20039;-70
2022/07/27 09:27:44;;;;;;;20.70;18.88;;;35.90;99.80;;;;;;4883524;29;20043;-70
2022/07/27 09:30:14;;;;;;;19.75;17.90;;;35.80;99.80;;;;;;4899732;29;20486;-71
2022/07/27 09:32:57;;;;;;;20.38;18.98;;;35.70;99.90;;;;;;4914753;29;20086;-68
2022/07/27 09:35:29;;;;;;;19.30;17.90;;;36.30;99.90;;;;;;4928015;29;20031;-70
2022/07/27 09:38:19;;;;;;;19.00;17.57;;;36.60;99.50;;;;;;4920151;29;20028;-70
2022/07/27 09:40:48;;;;;;;20.00;18.40;;;36.60;99.40;;;;;;4925608;29;20384;-71
2022/07/27 09:43:15;;;;;;;20.27;18.88;;;37.10;99.10;;;;;;4918984;29;20426;-71
2022/07/27 09:45:44;;;;;;;19.95;18.25;;;37.30;98.70;;;;;;4933821;29;20043;-71
2022/07/27 09:48:19;;;;;;;20.15;18.05;;;37.50;98.30;;;;;;4915495;29;20545;-69
2022/07/27 09:50:47;;;;;;;19.77;18.38;;;37.10;98.30;;;;;;4933735;29;20044;-70
2022/07/27 09:53:22;;;;;;;20.08;18.50;;;37.10;98.40;;;;;;4920191;29;20472;-70
2022/07/27 09:55:59;;;;;;;19.73;18.20;;;37.30;98.40;;;;;;4917809;29;20056;-70
2022/07/27 09:58:46;;;;;;;19.17;17.85;;;36.90;98.20;;;;;;4900917;29;20043;-71
2022/07/27 10:01:22;;;;;;;19.38;17.83;;;36.90;98.80;;;;;;4932324;29;20028;-71
2022/07/27 10:04:00;;;;;;;19.08;17.52;;;36.50;98.70;;;;;;4902375;29;20168;-71
2022/07/27 10:06:29;;;;;;;19.17;17.50;;;35.80;99.30;;;;;;4914054;29;20056;-70
2022/07/27 10:08:57;;;;;;;19.20;17.50;;;35.80;99.30;;;;;;4928694;29;20019;-70
2022/07/27 10:11:24;;;;;;;19.50;17.90;;;35.80;99.70;;;;;;4936486;29;20476;-69
2022/07/27 10:13:53;;;;;;;19.10;17.70;;;36.00;99.60;;;;;;4936380;29;20035;-70
2022/07/27 10:16:23;;;;;;;18.83;17.00;;;35.60;99.90;;;;;;4936715;29;20030;-70
2022/07/27 10:19:05;;;;;;;18.45;17.15;;;35.70;99.90;;;;;;4935225;29;20489;-70
2022/07/27 10:21:34;;;;;;;18.48;17.13;;;35.10;99.90;;;;;;4936276;29;20104;-70
2022/07/27 10:24:06;;;;;;;19.58;18.05;;;34.80;99.90;;;;;;4936576;29;20024;-70
2022/07/27 10:26:37;;;;;;;19.63;18.23;;;35.00;99.90;;;;;;4936645;29;20031;-70
2022/07/27 10:29:12;;;;;;;19.13;17.67;;;35.10;99.90;;;;;;4936820;29;20063;-70
2022/07/27 10:31:42;;;;;;;19.08;17.58;;;35.50;99.90;;;;;;4936690;29;20040;-71
2022/07/27 10:34:13;;;;;;;19.13;17.52;;;35.40;99.90;;;;;;4919303;29;20378;-70
2022/07/27 10:36:49;;;;;;;19.63;18.13;;;35.60;99.90;;;;;;4919640;29;20478;-70
2022/07/27 10:39:32;;;;;;;18.00;16.58;;;35.60;99.90;;;;;;4936380;29;20032;-70
2022/07/27 10:42:26;;;;;;;18.55;16.77;;;35.70;99.90;;;;;;4936360;29;20039;-70
2022/07/27 10:44:57;;;;;;;;;;;36.10;99.90;;;;;;4935276;29;20118;-69
2022/07/27 10:47:32;;;;;;;17.55;16.00;;;36.00;99.90;;;;;;4936649;29;20390;-70
2022/07/27 10:50:18;;;;;;;17.15;16.00;;;35.60;99.90;;;;;;4935915;29;20031;-71
2022/07/27 10:52:49;;;;;;;18.33;16.13;;;34.90;99.90;;;;;;4935352;29;20032;-70
2022/07/27 10:55:31;;;;;;;18.55;16.73;;;34.90;99.90;;;;;;4935951;29;20048;-71
2022/07/27 10:58:03;;;;;;;18.17;16.60;;;35.40;99.90;;;;;;4936077;29;20059;-71
2022/07/27 11:00:48;;;;;;;17.63;16.23;;;35.60;99.90;;;;;;4936154;29;20032;-71
2022/07/27 11:03:22;;;;;;;18.27;16.50;;;35.70;99.60;;;;;;4936068;29;20507;-71
2022/07/27 11:06:05;;;;;;;17.90;16.52;;;35.70;99.80;;;;;;4936152;29;20028;-71
2022/07/27 11:08:40;;;;;;;;;;;35.80;99.90;;;;;;4919507;29;20396;-71
2022/07/27 11:11:12;;;;;;;18.75;17.15;;;35.90;99.90;;;;;;4935943;29;19917;-71
2022/07/27 11:13:38;;;;;;;18.55;17.08;;;36.20;99.60;;;;;;4936051;29;20040;-71
2022/07/27 14:44:27;;;;;;;17.95;16.40;;;35.30;98.90;;;;;;5781386;23;20047;-93
2022/07/27 14:46:53;;;;;;;17.92;16.38;;;35.00;98.40;;;;;;4902900;29;20025;-91
2022/07/27 14:49:20;;;;;;;17.27;16.17;;;35.20;98.50;;;;;;4902398;29;20024;-92
2022/07/27 14:51:47;;;;;;;18.27;16.77;;;35.30;98.60;;;;;;4902601;29;20122;-92
2022/07/27 14:54:14;;;;;;;18.05;16.60;;;35.30;98.40;;;;;;4901855;29;20036;-92
2022/07/27 14:56:40;;;;;;;17.73;16.13;;;35.50;98.50;;;;;;4901823;29;20034;-93
2022/07/27 14:59:07;;;;;;;18.58;16.98;;;35.70;98.50;;;;;;4901779;29;20051;-91
2022/07/27 15:01:33;;;;;;;18.27;16.73;;;35.40;98.40;;;;;;4901255;29;20032;-93
2022/07/27 15:04:00;;;;;;;17.48;16.25;;;35.30;98.30;;;;;;4901273;29;20489;-91
2022/07/27 15:06:26;;;;;;;16.83;15.73;;;35.30;97.90;;;;;;4901361;29;20032;-91
2022/07/27 15:08:52;;;;;;;17.25;15.88;;;35.20;98.30;;;;;;4900950;29;20028;-93
2022/07/27 15:11:19;;;;;;;17.35;16.13;;;35.20;98.50;;;;;;4901241;29;20038;-95
2022/07/27 15:13:45;;;;;;;20.08;16.42;;;35.20;98.60;;;;;;4901178;29;20033;-94
2022/07/27 15:16:12;;;;;;;17.15;15.80;;;35.10;98.10;;;;;;4900787;29;20028;-92
2022/07/27 15:18:40;;;;;;;16.90;15.73;;;35.10;98.20;;;;;;4900995;29;20032;-92
2022/07/27 15:21:07;;;;;;;17.20;15.60;;;35.20;97.90;;;;;;4900915;29;20036;-91
2022/07/27 15:23:34;;;;;;;16.80;15.55;;;35.00;98.20;;;;;;4901207;29;20079;-93
2022/07/27 15:26:00;;;;;;;16.85;15.40;;;35.00;98.20;;;;;;4901084;29;20036;-92
2022/07/27 15:28:26;;;;;;;16.70;15.57;;;35.10;98.60;;;;;;4901112;29;20052;-92
2022/07/27 15:30:53;;;;;;;16.58;15.25;;;35.20;99.10;;;;;;4901073;29;20509;-91
2022/07/27 15:33:19;;;;;;;16.65;15.27;;;35.30;99.20;;;;;;4901035;29;20044;-93
2022/07/27 15:35:45;;;;;;;17.30;16.05;;;35.10;99.10;;;;;;4900943;29;20044;-91
2022/07/27 15:38:11;;;;;;;17.08;15.60;;;35.20;98.70;;;;;;4900676;29;20040;-94
2022/07/27 15:40:40;;;;;;;16.85;15.63;;;35.00;98.60;;;;;;4906022;29;20036;-93
2022/07/27 15:43:12;;;;;;;17.55;15.73;;;35.00;98.60;;;;;;4904910;29;20032;-92
2022/07/27 15:45:46;;;;;;;17.92;16.52;;;34.90;98.80;;;;;;4903432;29;20498;-93
2022/07/27 15:48:14;;;;;;;17.45;16.23;;;34.90;99.00;;;;;;4904712;29;20032;-93
2022/07/27 15:50:44;;;;;;;17.70;16.38;;;35.00;98.80;;;;;;4903932;29;20039;-92
2022/07/27 15:53:13;;;;;;;17.73;16.30;;;35.00;99.10;;;;;;4905668;29;20439;-91
2022/07/27 15:55:41;;;;;;;18.17;16.58;;;35.00;99.20;;;;;;4903974;29;20400;-93
2022/07/27 15:58:08;;;;;;;18.05;16.55;;;35.00;99.00;;;;;;4904996;29;20036;-92
2022/07/27 16:00:36;;;;;;;17.70;16.17;;;35.00;99.30;;;;;;4904193;29;20062;-91
2022/07/27 16:03:03;;;;;;;16.90;15.52;;;34.90;99.10;;;;;;4903994;29;20103;-92
2022/07/27 16:05:30;;;;;;;17.70;16.27;;;34.80;99.30;;;;;;4904227;29;20085;-92
2022/07/27 16:07:56;;;;;;;17.65;16.10;;;34.80;99.40;;;;;;4904506;29;20036;-93
2022/07/27 16:10:22;;;;;;;16.80;15.48;;;34.80;99.50;;;;;;4904089;29;20063;-92
2022/07/27 16:12:48;;;;;;;23.23;15.95;;;34.60;99.60;;;;;;4904194;29;20063;-93
2022/07/27 16:15:15;;;;;;;16.45;15.30;;;34.60;99.60;;;;;;4904957;29;20035;-94
2022/07/27 16:17:41;;;;;;;16.83;15.55;;;34.70;99.80;;;;;;4905399;29;20140;-92
2022/07/27 16:20:08;;;;;;;16.58;15.27;;;34.90;99.90;;;;;;4904955;29;20131;-94
2022/07/27 16:22:38;;;;;;;17.40;15.93;;;34.90;99.90;;;;;;4905706;29;20028;-93
2022/07/27 16:25:05;;;;;;;17.27;15.98;;;34.90;99.90;;;;;;4904177;29;20106;-92
2022/07/27 16:27:31;;;;;;;16.98;15.45;;;35.00;99.80;;;;;;4903615;29;20083;-93
2022/07/27 16:29:57;;;;;;;16.65;15.40;;;35.00;99.80;;;;;;4903934;29;20146;-93
2022/07/27 16:32:23;;;;;;;16.63;15.15;;;35.00;99.60;;;;;;4903762;29;20040;-94
2022/07/27 16:34:50;;;;;;;15.95;14.65;;;34.90;99.40;;;;;;4906237;29;20028;-92
2022/07/27 16:37:16;;;;;;;16.08;14.88;;;34.70;99.80;;;;;;4909317;29;20063;-92
2022/07/27 16:39:43;;;;;;;15.68;14.57;;;34.50;99.80;;;;;;4906700;29;20500;-94
2022/07/27 16:42:09;;;;;;;16.23;14.73;;;34.30;99.90;;;;;;4904519;29;20044;-93
2022/07/27 16:44:38;;;;;;;16.10;14.77;;;34.40;99.90;;;;;;4903501;29;20040;-91
2022/07/27 16:47:05;;;;;;;16.55;15.05;;;34.50;99.90;;;;;;4903404;29;20032;-92
2022/07/27 16:49:31;;;;;;;16.65;15.43;;;34.50;99.70;;;;;;4903258;29;20032;-93
2022/07/27 16:51:58;;;;;;;16.48;14.50;;;34.50;99.80;;;;;;4888359;29;20028;-93
2022/07/27 16:54:43;;;;;;;15.07;14.07;;;34.50;99.70;;;;;;4905165;29;20032;-94
2022/07/27 16:57:10;;;;;;;16.25;14.95;;;34.50;99.70;;;;;;4895771;29;20028;-91
2022/07/27 16:59:40;;;;;;;16.23;14.90;;;34.50;99.90;;;;;;4914368;29;20040;-92
2022/07/27 17:02:06;;;;;;;16.30;15.20;;;34.40;99.90;;;;;;4914144;29;20100;-93
2022/07/27 17:04:33;;;;;;;17.30;15.80;;;34.40;99.90;;;;;;4911802;29;20115;-94
2022/07/27 17:07:00;;;;;;;16.73;15.43;;;34.40;99.90;;;;;;4913641;29;20048;-92
2022/07/27 17:09:26;;;;;;;16.10;14.80;;;34.30;99.90;;;;;;4899520;29;20126;-94
2022/07/27 17:11:53;;;;;;;16.80;15.30;;;34.20;99.90;;;;;;4914798;29;20043;-92
2022/07/27 17:14:20;;;;;;;16.95;15.32;;;34.20;99.90;;;;;;4914503;29;20040;-93
2022/07/27 17:16:47;;;;;;;17.00;15.40;;;34.20;99.90;;;;;;4909977;29;20105;-93
2022/07/27 17:19:15;;;;;;;17.80;15.95;;;34.10;99.90;;;;;;4894700;29;20028;-93
2022/07/27 17:21:41;;;;;;;18.13;16.30;;;34.00;99.90;;;;;;4911627;29;20139;-92
2022/07/27 17:24:08;;;;;;;16.95;15.65;;;34.00;99.90;;;;;;4908493;29;20032;-90
2022/07/27 17:26:44;;;;;;;17.10;15.90;;;33.90;99.90;;;;;;4907586;29;20032;-94
2022/07/27 17:29:10;;;;;;;17.20;15.77;;;33.80;99.90;;;;;;4918821;29;20031;-92
2022/07/27 17:31:36;;;;;;;17.60;16.25;;;33.70;99.60;;;;;;4890053;29;20117;-93
2022/07/27 17:34:03;;;;;;;17.67;16.25;;;33.70;99.50;;;;;;4920937;29;20035;-93
2022/07/27 17:36:29;;;;;;;17.88;16.38;;;33.60;99.50;;;;;;4891878;29;20020;-92
2022/07/27 17:38:56;;;;;;;17.55;15.98;;;33.50;99.50;;;;;;4913933;29;20043;-92
2022/07/27 17:41:23;;;;;;;18.10;16.50;;;33.30;99.60;;;;;;4904949;29;20028;-92
2022/07/27 17:43:50;;;;;;;17.92;16.55;;;33.30;99.60;;;;;;4898676;29;20042;-93
2022/07/27 17:46:17;;;;;;;18.85;17.05;;;33.20;99.70;;;;;;4919555;29;20051;-91
2022/07/27 17:48:43;;;;;;;17.63;16.23;;;33.20;99.90;;;;;;4892785;29;20508;-92
2022/07/27 17:51:10;;;;;;;17.25;15.88;;;33.10;99.80;;;;;;4913027;29;20024;-92
2022/07/27 17:53:37;;;;;;;19.13;17.45;;;33.00;99.80;;;;;;4899684;29;20055;-92
2022/07/27 17:56:04;;;;;;;18.15;16.55;;;32.90;99.90;;;;;;4914562;29;20043;-91
2022/07/27 17:58:30;;;;;;;18.08;16.33;;;32.80;99.90;;;;;;4917825;29;20153;-91
2022/07/27 18:00:57;;;;;;;17.67;16.35;;;32.80;99.90;;;;;;4920320;29;20050;-93
2022/07/27 18:03:23;;;;;;;17.17;15.77;;;32.70;99.90;;;;;;4896084;29;20024;-93
2022/07/27 18:05:50;;;;;;;16.77;15.38;;;32.60;99.90;;;;;;4919221;29;20032;-92
2022/07/27 18:08:25;;;;;;;17.50;15.82;;;32.50;99.90;;;;;;4910672;29;20103;-91
2022/07/27 18:17:20;;;;;;;19.73;15.57;;;32.30;99.90;;;;;;5758322;23;20128;-94
2022/07/27 18:20:38;;;;;;;15.07;13.80;;;32.20;99.90;;;;;;4946178;23;20015;-93
2022/07/27 18:23:29;;;;;;;16.33;14.63;;;32.10;99.90;;;;;;4872131;29;20048;-92
2022/07/27 18:25:56;;;;;;;15.00;13.73;;;32.00;99.90;;;;;;4922466;29;20090;-92
2022/07/27 18:28:25;;;;;;;16.30;14.57;;;32.00;99.90;;;;;;4897894;29;20027;-92
2022/07/27 18:30:54;;;;;;;19.02;13.80;;;31.90;99.90;;;;;;4909785;29;20050;-93
2022/07/27 18:33:49;;;;;;;14.75;13.40;;;31.80;99.90;;;;;;4904259;29;20032;-93
2022/07/27 18:36:37;;;;;;;20.88;13.30;;;31.80;99.90;;;;;;4858523;23;20051;-93
2022/07/27 18:54:04;;;;;;;14.13;11.70;;;31.00;99.90;;;;;;5303405;23;20435;-93
2022/07/27 18:56:31;;;;;;;20.80;12.52;;;30.90;99.90;;;;;;4896260;29;20024;-94
2022/07/27 18:58:57;;;;;;;13.48;12.18;;;30.80;99.90;;;;;;4866585;29;20044;-93
2022/07/27 19:01:24;;;;;;;14.00;11.73;;;30.90;99.90;;;;;;4886941;29;20366;-92
2022/07/27 19:03:50;;;;;;;16.95;12.73;;;31.00;99.90;;;;;;4885417;29;20460;-92
2022/07/27 19:06:17;;;;;;;14.15;12.82;;;31.00;99.90;;;;;;4885323;29;20111;-92
2022/07/27 19:08:48;;;;;;;19.83;12.02;;;31.00;99.90;;;;;;4885911;29;20036;-92
2022/07/27 19:11:15;;;;;;;15.45;12.45;;;31.00;99.90;;;;;;4885584;29;20031;-91
2022/07/27 19:13:41;;;;;;;13.70;12.20;;;31.00;99.90;;;;;;4886186;29;20036;-92
2022/07/27 19:16:08;;;;;;;14.90;13.05;;;31.00;99.90;;;;;;4881664;29;20033;-93
2022/07/27 19:18:35;;;;;;;18.75;12.15;;;31.00;99.90;;;;;;4868611;29;20489;-94
2022/07/27 19:21:01;;;;;;;15.07;11.95;;;30.90;99.90;;;;;;4868051;29;20025;-91
2022/07/27 19:23:28;;;;;;;15.20;12.90;;;30.90;99.90;;;;;;4867311;29;20029;-93
2022/07/27 19:25:59;;;;;;;16.10;12.45;;;30.90;99.90;;;;;;4867299;29;20037;-91
2022/07/27 19:28:26;;;;;;;17.60;12.63;;;30.90;99.90;;;;;;4867787;29;20534;-92
2022/07/27 19:30:53;;;;;;;13.00;11.68;;;30.90;99.90;;;;;;4867345;29;20029;-92
2022/07/27 19:33:20;;;;;;;14.00;10.65;;;30.90;99.90;;;;;;4867092;29;20052;-91
2022/07/27 19:35:49;;;;;;;13.60;11.13;;;30.80;99.90;;;;;;4867161;29;20025;-92
2022/07/27 19:38:16;;;;;;;16.05;11.77;;;30.70;99.90;;;;;;4867241;29;20036;-91
2022/07/27 19:40:43;;;;;;;15.98;12.00;;;30.60;99.90;;;;;;4867189;29;20029;-92
2022/07/27 19:43:09;;;;;;;16.10;11.63;;;30.60;99.90;;;;;;4867156;29;20062;-92
2022/07/27 19:45:36;;;;;;;16.40;11.88;;;30.60;99.90;;;;;;4867148;29;20487;-93
2022/07/27 19:48:04;;;;;;;19.67;11.98;;;30.60;99.90;;;;;;4867691;29;20484;-92
2022/07/27 19:50:30;;;;;;;16.08;11.75;;;30.60;99.90;;;;;;4867255;29;20070;-91
2022/07/27 19:52:57;;;;;;;14.15;11.65;;;30.60;99.90;;;;;;4867039;29;20057;-92
2022/07/27 19:55:23;;;;;;;15.32;12.07;;;30.50;99.90;;;;;;4851816;29;20040;-92
2022/07/27 19:57:59;;;;;;;14.13;11.75;;;30.50;99.90;;;;;;4869327;29;20037;-93
2022/07/27 20:00:26;;;;;;;14.23;12.30;;;30.40;99.90;;;;;;5062536;23;20307;-93
2022/07/27 20:02:55;;;;;;;14.27;12.40;;;30.30;99.90;;;;;;4903065;29;20478;-94
2022/07/27 20:05:22;;;;;;;18.42;13.00;;;30.30;99.90;;;;;;4904045;29;20036;-92
2022/07/27 20:07:48;;;;;;;14.32;12.82;;;30.20;99.90;;;;;;4899777;29;20049;-92
2022/07/27 20:10:15;;;;;;;15.82;13.27;;;30.20;99.90;;;;;;4885834;29;20486;-92
2022/07/27 20:12:46;;;;;;;16.13;12.93;;;30.20;99.90;;;;;;4869843;29;20037;-94
2022/07/27 20:15:16;;;;;;;18.98;13.27;;;30.20;99.90;;;;;;4883478;29;20025;-92
2022/07/27 20:17:43;;;;;;;16.40;13.00;;;30.00;99.90;;;;;;4885606;29;20028;-93
2022/07/27 20:20:12;;;;;;;17.70;12.77;;;30.00;99.90;;;;;;4884384;29;20036;-91
2022/07/27 20:22:39;;;;;;;20.15;13.40;;;29.90;99.90;;;;;;4886349;29;20477;-92
2022/07/27 20:25:09;;;;;;;17.20;12.30;;;29.90;99.90;;;;;;4888593;29;20048;-93
2022/07/27 20:27:36;;;;;;;15.57;11.93;;;29.90;99.90;;;;;;4886202;29;20033;-93
2022/07/27 20:30:04;;;;;;;13.50;11.82;;;29.80;99.90;;;;;;4885139;29;20157;-93
2022/07/27 20:32:30;;;;;;;16.27;11.65;;;29.70;99.90;;;;;;4888549;29;20032;-93
2022/07/27 20:34:57;;;;;;;15.73;11.15;;;29.70;99.90;;;;;;4885365;29;20111;-93
2022/07/27 20:37:23;;;;;;;15.85;10.93;;;29.50;99.90;;;;;;4885908;29;20029;-91
2022/07/27 20:39:50;;;;;;;13.82;9.73;;;29.40;99.90;;;;;;4884934;29;20036;-94
2022/07/27 20:42:20;;;;;;;11.52;9.65;;;29.30;99.90;;;;;;4884974;29;20025;-94
2022/07/27 20:44:47;;;;;;;13.02;10.27;;;29.20;99.90;;;;;;4885448;29;20115;-93
2022/07/27 20:47:14;;;;;;;12.52;9.60;;;29.10;99.90;;;;;;4885015;29;20029;-92
2022/07/27 20:49:41;;;;;;;18.08;11.43;;;29.10;99.90;;;;;;4885324;29;20084;-94
2022/07/27 20:52:11;;;;;;;17.92;11.25;;;29.00;99.90;;;;;;4887478;29;20039;-93
2022/07/27 20:54:38;;;;;;;32.22;10.88;;;28.80;99.90;;;;;;4872385;29;20494;-93
2022/07/27 20:57:26;;;;;;;31.05;9.23;;;28.40;99.90;;;;;;4886622;29;20028;-92
2022/07/27 20:59:56;;;;;;;43.67;9.15;;;27.90;99.90;;;;;;4882824;29;20375;-93
2022/07/27 21:02:23;;;;;;;36.75;9.88;;;27.60;99.90;;;;;;4881467;29;20045;-91
2022/07/27 21:04:53;;;;;;;46.58;10.73;;;27.50;99.90;;;;;;4882363;29;20064;-91
2022/07/27 21:07:20;;;;;;;47.88;9.15;;;27.30;99.90;;;;;;4883179;29;20486;-89
2022/07/27 21:09:48;;;;;;;41.85;8.55;;;27.00;99.90;;;;;;4881390;29;20089;-91
2022/07/27 21:12:14;;;;;;;36.95;7.32;;;26.90;99.90;;;;;;4879779;29;20037;-90
2022/07/27 21:14:42;;;;;;;25.65;7.88;;;26.80;99.90;;;;;;4881230;29;20029;-90
2022/07/27 21:17:08;;;;;;;23.27;7.35;;;26.40;99.90;;;;;;4881185;29;20033;-90
2022/07/27 21:19:38;;;;;;;24.30;6.93;;;26.10;99.90;;;;;;4881114;29;20120;-89
2022/07/27 21:22:05;;;;;;;24.05;6.22;;;26.10;99.90;;;;;;4881170;29;20132;-89
2022/07/27 21:24:32;;;;;;;14.57;6.35;;;26.10;99.90;;;;;;4881101;29;20384;-89
2022/07/27 21:26:58;;;;;;;15.40;5.72;;;26.20;99.90;;;;;;4880951;29;20021;-90
2022/07/27 21:29:25;;;;;;;25.88;5.63;;;26.20;99.90;;;;;;4881063;29;20491;-90
2022/07/27 21:31:52;;;;;;;22.48;5.60;;;26.30;99.90;;;;;;4880806;29;20033;-91
2022/07/27 21:34:20;;;;;;;10.60;4.72;;;26.40;99.90;;;;;;4865503;29;20029;-91
2022/07/27 21:36:47;;;;;;;15.23;5.38;;;26.30;99.90;;;;;;4864439;29;20029;-91
2022/07/27 21:39:16;;;;;;;17.23;5.03;;;26.30;99.90;;;;;;4880802;29;20033;-92
2022/07/27 21:41:44;;;;;;;19.58;6.32;;;26.30;99.90;;;;;;4865144;29;20096;-91
2022/07/27 21:44:10;;;;;;;15.15;5.38;;;26.30;99.90;;;;;;4880659;29;20037;-92
2022/07/27 21:46:40;;;;;;;17.80;5.00;;;26.30;99.90;;;;;;4880891;29;20439;-92
2022/07/27 21:49:07;;;;;;;15.43;6.00;;;26.20;99.90;;;;;;4880426;29;20036;-91
2022/07/27 21:51:34;;;;;;;24.83;7.25;;;26.10;99.90;;;;;;4880297;29;20033;-92
2022/07/27 21:54:00;;;;;;;15.68;6.18;;;26.10;99.90;;;;;;4880555;29;20033;-92
2022/07/27 21:56:27;;;;;;;17.88;7.18;;;26.00;99.90;;;;;;4880365;29;20029;-93
2022/07/27 21:58:54;;;;;;;19.08;7.22;;;26.00;99.90;;;;;;4880316;29;20035;-91
2022/07/27 22:01:21;;;;;;;17.83;7.60;;;26.10;99.90;;;;;;4880042;29;20057;-92
2022/07/27 22:03:48;;;;;;;16.10;7.38;;;26.00;99.90;;;;;;4880394;29;20052;-92
2022/07/27 22:06:14;;;;;;;22.42;7.43;;;26.00;99.90;;;;;;4880286;29;20062;-92
2022/07/27 22:08:42;;;;;;;13.80;6.72;;;26.00;99.90;;;;;;4864900;29;20051;-91
2022/07/27 22:11:09;;;;;;;20.85;7.05;;;26.00;99.90;;;;;;4880244;29;20060;-93
2022/07/27 22:13:36;;;;;;;16.80;6.78;;;26.00;99.90;;;;;;4880356;29;20448;-92
2022/07/27 22:16:03;;;;;;;17.20;6.22;;;26.00;99.90;;;;;;4880116;29;20120;-91
2022/07/27 22:18:30;;;;;;;18.02;6.95;;;25.90;99.90;;;;;;4879963;29;20047;-91
2022/07/27 22:20:57;;;;;;;10.38;4.97;;;25.90;99.90;;;;;;4864375;29;20029;-92
2022/07/27 22:23:24;;;;;;;15.13;5.22;;;25.80;99.90;;;;;;4880054;29;20061;-92
2022/07/27 22:25:51;;;;;;;14.25;5.22;;;25.70;99.90;;;;;;4880104;29;20049;-93
2022/07/27 22:28:19;;;;;;;14.43;4.82;;;25.70;99.90;;;;;;4880033;29;20052;-94
2022/07/27 22:30:46;;;;;;;12.18;4.10;;;25.60;99.90;;;;;;4879757;29;20068;-92
2022/07/27 22:33:12;;;;;;;12.50;4.28;;;25.60;99.90;;;;;;4879568;29;20045;-92
2022/07/27 22:35:39;;;;;;;12.35;4.50;;;25.60;99.90;;;;;;4879688;29;20509;-93
2022/07/27 22:38:06;;;;;;;11.10;3.90;;;25.70;99.90;;;;;;4879686;29;20040;-91
2022/07/27 22:40:32;;;;;;;16.48;4.50;;;25.80;99.90;;;;;;4879597;29;20402;-92
2022/07/27 22:42:59;;;;;;;18.95;4.90;;;25.70;99.90;;;;;;4864411;29;20088;-92
2022/07/27 22:45:26;;;;;;;18.08;4.40;;;25.60;99.90;;;;;;4879579;29;20029;-92
2022/07/27 22:47:52;;;;;;;9.10;4.40;;;25.50;99.90;;;;;;4879503;29;20029;-95
2022/07/27 22:50:20;;;;;;;15.88;5.00;;;25.40;99.90;;;;;;4880052;29;20021;-93
2022/07/27 22:52:48;;;;;;;14.55;4.65;;;25.50;99.90;;;;;;4880140;29;20476;-92
2022/07/27 22:55:16;;;;;;;17.50;5.05;;;25.50;99.90;;;;;;4879649;29;20033;-92
2022/07/27 22:57:42;;;;;;;13.82;4.40;;;25.60;99.90;;;;;;4879381;29;20045;-92
2022/07/27 23:00:13;;;;;;;15.82;4.88;;;25.50;99.90;;;;;;4880142;29;20178;-92
2022/07/27 23:02:40;;;;;;;14.90;5.30;;;25.40;99.90;;;;;;4879333;29;20197;-92
2022/07/27 23:05:09;;;;;;;21.63;5.53;;;25.40;99.90;;;;;;4879433;29;20055;-92
2022/07/27 23:07:36;;;;;;;19.98;5.03;;;25.40;99.90;;;;;;4879305;29;20056;-93
2022/07/27 23:10:04;;;;;;;23.92;5.53;;;25.40;99.90;;;;;;4879356;29;20036;-94
2022/07/27 23:12:30;;;;;;;18.27;5.20;;;25.40;99.90;;;;;;4880698;29;20037;-92
2022/07/27 23:14:57;;;;;;;16.80;5.00;;;25.40;99.90;;;;;;4879424;29;20029;-93
2022/07/27 23:17:24;;;;;;;18.42;5.22;;;25.40;99.90;;;;;;4879325;29;20224;-92
2022/07/27 23:19:53;;;;;;;18.42;5.43;;;25.40;99.90;;;;;;4879498;29;20078;-93
2022/07/27 23:22:20;;;;;;;17.52;5.00;;;25.40;99.90;;;;;;4879381;29;20119;-93
2022/07/27 23:24:46;;;;;;;17.45;5.32;;;25.50;99.90;;;;;;4879336;29;20036;-93
2022/07/27 23:27:13;;;;;;;21.10;5.65;;;25.50;99.90;;;;;;4879369;29;20142;-93
2022/07/27 23:29:40;;;;;;;25.38;5.85;;;25.50;99.90;;;;;;4879243;29;20040;-94
2022/07/27 23:32:09;;;;;;;17.23;6.03;;;25.50;99.90;;;;;;4879052;29;20035;-93
2022/07/27 23:34:36;;;;;;;22.88;6.20;;;25.50;99.90;;;;;;4879070;29;20048;-92
2022/07/27 23:37:03;;;;;;;26.48;5.68;;;25.50;99.90;;;;;;4879099;29;20033;-94
2022/07/27 23:39:30;;;;;;;26.10;5.65;;;25.60;99.90;;;;;;4879722;29;20035;-91
2022/07/27 23:42:24;;;;;;;27.75;5.95;;;25.60;99.90;;;;;;4880792;29;20043;-93
2022/07/27 23:44:51;;;;;;;21.13;5.75;;;25.60;99.90;;;;;;4879203;29;20093;-94
2022/07/27 23:47:18;;;;;;;24.88;6.13;;;25.70;99.90;;;;;;4878989;29;20068;-94
2022/07/27 23:49:45;;;;;;;27.52;6.22;;;25.60;99.90;;;;;;4879051;29;20064;-93
2022/07/27 23:52:14;;;;;;;27.38;5.55;;;25.50;99.90;;;;;;4878946;29;20041;-94
2022/07/27 23:54:41;;;;;;;24.23;5.03;;;25.60;99.90;;;;;;4879216;29;20049;-93
2022/07/27 23:57:11;;;;;;;20.00;5.07;;;25.60;99.90;;;;;;4879164;29;20039;-93
2022/07/27 23:59:38;;;;;;;18.38;4.72;;;25.60;99.90;;;;;;4879586;29;20116;-94
